Time;durP1;ratioP1;P1;durP2;ratioP2;P2;SDS_P1;SDS_P2;PMS_P1;PMS_P2;Temp;Humidity;BMP_temperature;BMP_pressure;BME280_temperature;BME280_humidity;BME280_pressure;Samples;Min_cycle;Max_cycle;Signal;HPM_P1;HPM_P2
2022/04/24 00:01:13;;;;;;;17.40;15.50;;;11.80;91.20;;;;;;5071468;28;20412;-48
2022/04/24 00:03:39;;;;;;;16.70;15.13;;;11.80;91.30;;;;;;5076371;28;20264;-47
2022/04/24 00:06:05;;;;;;;17.17;15.43;;;11.80;91.40;;;;;;5077183;28;20464;-47
2022/04/24 00:08:30;;;;;;;14.70;13.30;;;11.80;91.40;;;;;;5076437;28;20307;-47
2022/04/24 00:10:56;;;;;;;16.00;14.40;;;11.70;91.40;;;;;;5076642;28;20522;-47
2022/04/24 00:13:23;;;;;;;15.30;13.80;;;11.70;91.40;;;;;;5076478;28;20175;-47
2022/04/24 00:15:50;;;;;;;15.20;13.80;;;11.80;91.50;;;;;;5076668;28;20173;-47
2022/04/24 00:18:15;;;;;;;17.43;15.67;;;11.70;91.40;;;;;;5076507;28;20428;-47
2022/04/24 00:20:42;;;;;;;16.90;15.20;;;11.70;91.40;;;;;;5076434;28;20419;-47
2022/04/24 00:23:08;;;;;;;16.93;13.67;;;11.70;91.40;;;;;;5055856;28;20223;-46
2022/04/24 00:25:34;;;;;;;16.03;14.43;;;11.70;91.50;;;;;;5076410;28;20427;-47
2022/04/24 00:28:02;;;;;;;16.03;14.43;;;11.70;91.50;;;;;;5076152;28;20288;-47
2022/04/24 00:30:28;;;;;;;17.00;15.30;;;11.70;91.50;;;;;;5059192;28;20844;-47
2022/04/24 00:32:53;;;;;;;17.73;15.93;;;11.70;91.50;;;;;;5076548;28;20439;-47
2022/04/24 00:35:19;;;;;;;16.50;14.90;;;11.70;91.50;;;;;;5075982;28;20463;-47
2022/04/24 00:37:44;;;;;;;17.70;16.00;;;11.70;91.50;;;;;;5072587;28;20174;-47
2022/04/24 00:40:11;;;;;;;17.57;15.97;;;11.70;91.50;;;;;;5075296;28;20316;-47
2022/04/24 00:42:36;;;;;;;17.13;15.33;;;11.70;91.60;;;;;;5055204;28;20206;-47
2022/04/24 00:45:02;;;;;;;16.67;15.10;;;11.70;91.60;;;;;;5076319;28;20477;-47
2022/04/24 00:47:29;;;;;;;17.10;15.40;;;11.70;91.60;;;;;;5076598;28;20456;-47
2022/04/24 00:49:54;;;;;;;17.67;15.97;;;11.70;91.70;;;;;;5076579;28;20194;-47
2022/04/24 00:52:20;;;;;;;16.43;14.80;;;11.70;91.70;;;;;;5076309;28;20416;-47
2022/04/24 00:54:46;;;;;;;16.47;14.87;;;11.60;91.70;;;;;;5075143;28;20227;-47
2022/04/24 00:57:14;;;;;;;17.10;15.43;;;11.60;91.80;;;;;;5077042;28;20264;-47
2022/04/24 00:59:40;;;;;;;16.90;15.20;;;11.60;91.80;;;;;;5072480;28;20181;-47
2022/04/24 01:02:08;;;;;;;17.13;15.40;;;11.60;91.80;;;;;;5076747;28;20663;-47
2022/04/24 01:04:34;;;;;;;17.70;15.90;;;11.60;91.80;;;;;;5071241;28;20424;-47
2022/04/24 01:07:00;;;;;;;19.00;17.03;;;11.60;91.80;;;;;;5074832;28;20418;-47
2022/04/24 01:09:27;;;;;;;16.70;15.10;;;11.60;91.80;;;;;;5076250;28;20838;-46
2022/04/24 01:11:55;;;;;;;17.00;15.40;;;11.60;91.80;;;;;;5076641;28;20510;-46
2022/04/24 01:14:49;;;;;;;17.77;16.00;;;11.70;91.90;;;;;;5080438;28;20459;-47
2022/04/24 01:17:15;;;;;;;17.20;15.40;;;11.70;91.90;;;;;;5075312;28;20431;-47
2022/04/24 01:19:40;;;;;;;17.50;15.70;;;11.60;91.80;;;;;;5080157;28;20691;-46
2022/04/24 01:22:06;;;;;;;17.77;15.97;;;11.60;91.90;;;;;;5078946;28;20181;-47
2022/04/24 01:24:31;;;;;;;19.37;17.30;;;11.70;91.90;;;;;;5079078;28;20593;-47
2022/04/24 01:26:57;;;;;;;17.67;15.97;;;11.70;92.00;;;;;;5080211;28;20634;-47
2022/04/24 01:29:23;;;;;;;18.60;16.77;;;11.60;92.00;;;;;;5079111;28;20197;-47
2022/04/24 01:31:49;;;;;;;18.73;16.93;;;11.60;92.00;;;;;;5080011;28;20553;-47
2022/04/24 01:34:15;;;;;;;19.30;17.37;;;11.60;92.10;;;;;;5058796;28;20217;-47
2022/04/24 01:36:41;;;;;;;18.27;16.40;;;11.60;92.00;;;;;;5079952;28;20408;-47
2022/04/24 01:39:08;;;;;;;18.93;16.97;;;11.60;92.10;;;;;;5078930;28;20529;-47
2022/04/24 01:41:35;;;;;;;17.20;15.50;;;11.60;92.00;;;;;;5078332;28;20941;-47
2022/04/24 01:44:01;;;;;;;18.67;16.83;;;11.60;92.00;;;;;;5077936;28;20485;-47
2022/04/24 01:46:26;;;;;;;18.27;16.47;;;11.60;92.00;;;;;;5075500;28;20428;-47
2022/04/24 01:48:53;;;;;;;18.83;16.90;;;11.60;92.00;;;;;;5074401;28;20526;-47
2022/04/24 01:51:19;;;;;;;20.23;18.23;;;11.60;92.20;;;;;;5078298;28;20643;-47
2022/04/24 01:53:44;;;;;;;20.33;18.37;;;11.60;92.20;;;;;;5078418;28;20475;-47
2022/04/24 01:56:11;;;;;;;20.80;18.67;;;11.60;92.30;;;;;;5061868;28;20506;-47
2022/04/24 01:58:38;;;;;;;19.63;17.63;;;11.60;92.40;;;;;;5079449;28;20427;-47
2022/04/24 02:01:04;;;;;;;20.63;18.50;;;11.60;92.40;;;;;;5061361;28;20430;-46
2022/04/24 02:03:30;;;;;;;21.33;19.30;;;11.60;92.50;;;;;;5079594;28;20481;-45
2022/04/24 02:05:56;;;;;;;20.47;18.47;;;11.60;92.40;;;;;;5076490;28;20439;-45
2022/04/24 02:08:22;;;;;;;20.80;18.80;;;11.50;92.30;;;;;;5079323;28;20844;-45
2022/04/24 02:10:49;;;;;;;20.17;18.17;;;11.50;92.40;;;;;;5078605;28;20777;-45
2022/04/24 02:13:15;;;;;;;20.17;18.17;;;11.50;92.40;;;;;;5077831;28;20404;-46
2022/04/24 02:15:41;;;;;;;19.67;17.87;;;11.60;92.40;;;;;;5077155;28;20479;-45
2022/04/24 02:18:07;;;;;;;19.00;17.20;;;11.50;92.40;;;;;;5078405;28;20439;-45
2022/04/24 02:20:33;;;;;;;19.13;17.33;;;11.60;92.60;;;;;;5076824;28;20539;-45
2022/04/24 02:22:59;;;;;;;20.30;18.27;;;11.50;92.50;;;;;;5079162;28;20492;-45
2022/04/24 02:25:25;;;;;;;21.20;19.13;;;11.60;92.80;;;;;;5075396;28;20479;-45
2022/04/24 02:27:53;;;;;;;20.97;18.97;;;11.60;93.00;;;;;;5059014;28;20423;-45
2022/04/24 02:30:20;;;;;;;21.40;19.20;;;11.60;93.20;;;;;;5076937;28;20764;-45
2022/04/24 02:32:46;;;;;;;22.20;20.00;;;11.60;93.40;;;;;;5077838;28;20411;-45
2022/04/24 02:35:12;;;;;;;20.90;18.77;;;11.60;93.50;;;;;;5077839;28;20463;-45
2022/04/24 02:37:38;;;;;;;20.87;18.67;;;11.50;93.50;;;;;;5077389;28;20199;-45
2022/04/24 02:40:09;;;;;;;20.90;18.90;;;11.50;93.40;;;;;;5077858;28;20452;-45
2022/04/24 02:42:36;;;;;;;21.40;19.30;;;11.60;93.50;;;;;;5076145;28;20424;-46
2022/04/24 02:45:03;;;;;;;21.50;19.40;;;11.50;93.70;;;;;;5077730;28;20462;-46
2022/04/24 02:47:29;;;;;;;21.93;19.80;;;11.50;93.80;;;;;;5067066;28;20444;-46
2022/04/24 02:49:57;;;;;;;21.93;19.73;;;11.50;93.90;;;;;;5075220;28;20435;-47
2022/04/24 02:52:23;;;;;;;22.03;19.80;;;11.50;94.00;;;;;;5061173;28;20693;-46
2022/04/24 02:54:48;;;;;;;22.70;20.40;;;11.40;94.00;;;;;;5058297;28;20587;-46
2022/04/24 02:57:14;;;;;;;21.87;19.67;;;11.40;94.20;;;;;;5058822;28;20192;-46
2022/04/24 02:59:44;;;;;;;22.33;20.13;;;11.40;94.10;;;;;;5058598;28;20236;-46
2022/04/24 03:02:12;;;;;;;22.40;20.20;;;11.40;94.10;;;;;;5058275;28;20185;-46
2022/04/24 03:04:38;;;;;;;21.80;19.60;;;11.40;94.20;;;;;;5055589;28;20471;-46
2022/04/24 03:07:04;;;;;;;21.00;18.93;;;11.30;94.20;;;;;;5062027;28;20417;-46
2022/04/24 03:09:30;;;;;;;22.20;20.10;;;11.40;94.20;;;;;;5067582;28;20428;-46
2022/04/24 03:11:55;;;;;;;23.20;20.80;;;11.40;94.20;;;;;;5066447;28;20522;-46
2022/04/24 03:14:21;;;;;;;20.30;18.40;;;11.30;94.10;;;;;;5068999;28;20456;-45
2022/04/24 03:16:47;;;;;;;22.27;19.97;;;11.30;94.10;;;;;;5065953;28;20204;-46
2022/04/24 03:19:12;;;;;;;22.13;19.93;;;11.30;94.20;;;;;;5070156;28;20204;-47
2022/04/24 03:21:38;;;;;;;22.83;20.53;;;11.30;94.20;;;;;;5069766;28;20194;-46
2022/04/24 03:24:04;;;;;;;20.77;18.57;;;11.30;94.30;;;;;;5076749;28;20419;-46
2022/04/24 03:26:30;;;;;;;23.03;20.73;;;11.30;94.30;;;;;;5073749;28;20460;-46
2022/04/24 03:28:57;;;;;;;23.00;20.60;;;11.30;94.40;;;;;;5065548;28;20441;-46
2022/04/24 03:31:23;;;;;;;23.37;20.90;;;11.30;94.50;;;;;;5072966;28;20412;-46
2022/04/24 03:33:52;;;;;;;24.73;22.30;;;11.30;94.60;;;;;;5059900;28;20463;-46
2022/04/24 03:36:20;;;;;;;23.07;20.87;;;11.30;94.60;;;;;;5065941;28;20749;-45
2022/04/24 03:38:46;;;;;;;22.13;19.97;;;11.30;94.70;;;;;;5071381;28;20522;-46
2022/04/24 03:41:11;;;;;;;21.37;19.37;;;11.30;94.80;;;;;;5060729;28;20551;-46
2022/04/24 03:43:37;;;;;;;22.77;20.60;;;11.30;94.80;;;;;;5072534;28;20471;-46
2022/04/24 03:46:05;;;;;;;23.33;20.93;;;11.30;94.80;;;;;;5062006;28;20235;-46
2022/04/24 03:48:31;;;;;;;22.83;20.67;;;11.30;94.90;;;;;;5063713;28;20193;-46
2022/04/24 03:50:57;;;;;;;22.57;20.30;;;11.30;94.90;;;;;;5066334;28;20443;-45
2022/04/24 03:53:22;;;;;;;21.93;19.80;;;11.30;94.90;;;;;;5047388;28;20524;-46
2022/04/24 03:55:48;;;;;;;22.20;20.10;;;11.30;95.00;;;;;;5066569;28;20186;-46
2022/04/24 03:58:14;;;;;;;23.90;21.40;;;11.30;95.00;;;;;;5049382;28;20276;-46
2022/04/24 04:00:40;;;;;;;20.33;18.23;;;11.30;95.10;;;;;;5068299;28;20526;-46
2022/04/24 04:03:06;;;;;;;21.23;19.07;;;11.40;95.10;;;;;;5067791;28;20499;-46
2022/04/24 04:05:31;;;;;;;21.30;19.23;;;11.40;95.10;;;;;;5065871;28;20583;-46
2022/04/24 04:07:57;;;;;;;22.57;20.17;;;11.40;95.30;;;;;;5066024;28;20191;-46
2022/04/24 04:10:23;;;;;;;21.80;19.60;;;11.30;95.40;;;;;;5055597;28;20190;-47
2022/04/24 04:12:51;;;;;;;23.87;21.57;;;11.40;95.50;;;;;;5058901;28;20259;-46
2022/04/24 04:15:17;;;;;;;24.67;21.20;;;11.40;95.50;;;;;;5042356;28;20985;-46
2022/04/24 04:17:44;;;;;;;24.00;21.70;;;11.40;95.60;;;;;;5061980;28;20531;-46
2022/04/24 04:20:12;;;;;;;24.10;21.70;;;11.30;95.70;;;;;;5076370;28;20436;-46
2022/04/24 04:22:50;;;;;;;23.80;21.40;;;11.30;95.80;;;;;;5051058;28;20906;-46
2022/04/24 04:25:16;;;;;;;13.00;11.80;;;11.30;96.10;;;;;;5071526;28;20427;-47
2022/04/24 04:27:42;;;;;;;8.57;7.17;;;11.10;96.00;;;;;;5073744;28;20458;-46
2022/04/24 04:30:08;;;;;;;7.37;6.67;;;10.80;95.90;;;;;;5071634;28;20197;-46
2022/04/24 04:32:35;;;;;;;6.37;5.50;;;10.60;95.90;;;;;;5064766;28;20437;-45
2022/04/24 04:35:04;;;;;;;6.90;4.20;;;10.60;96.10;;;;;;5065428;28;20523;-46
2022/04/24 04:37:31;;;;;;;3.23;2.70;;;10.50;96.20;;;;;;5066535;28;20430;-46
2022/04/24 04:39:57;;;;;;;3.47;2.10;;;10.50;96.00;;;;;;5062353;28;20834;-45
2022/04/24 04:42:23;;;;;;;1.93;1.10;;;10.40;95.90;;;;;;5067543;28;20515;-45
2022/04/24 04:44:48;;;;;;;1.70;1.10;;;10.20;95.80;;;;;;5063319;28;20441;-46
2022/04/24 04:47:14;;;;;;;1.80;1.10;;;10.20;95.80;;;;;;5067195;28;20254;-45
2022/04/24 04:49:40;;;;;;;1.17;0.80;;;10.10;95.80;;;;;;5070204;28;20588;-45
2022/04/24 04:52:05;;;;;;;3.07;0.70;;;9.90;96.60;;;;;;5069567;28;20190;-45
2022/04/24 04:54:31;;;;;;;3.03;0.63;;;9.80;96.80;;;;;;5070011;28;20599;-45
2022/04/24 04:56:57;;;;;;;1.60;0.70;;;9.70;96.90;;;;;;5070889;28;20600;-45
2022/04/24 04:59:23;;;;;;;1.10;0.40;;;9.70;97.10;;;;;;5068592;28;20420;-45
2022/04/24 05:01:48;;;;;;;0.83;0.50;;;9.80;97.20;;;;;;5069596;28;20191;-45
2022/04/24 05:04:14;;;;;;;0.93;0.50;;;9.70;97.10;;;;;;5035944;28;20182;-45
2022/04/24 05:06:39;;;;;;;2.13;0.40;;;9.70;97.00;;;;;;5068020;28;20292;-45
2022/04/24 05:09:05;;;;;;;1.13;0.40;;;9.60;96.90;;;;;;5071122;28;20189;-45
2022/04/24 05:11:31;;;;;;;1.70;0.40;;;9.60;96.80;;;;;;5067244;28;20224;-45
2022/04/24 05:13:57;;;;;;;2.20;0.30;;;9.60;96.80;;;;;;5068691;28;20210;-45
2022/04/24 05:16:22;;;;;;;0.90;0.30;;;9.50;96.70;;;;;;5068277;28;20881;-45
2022/04/24 05:18:48;;;;;;;3.43;0.40;;;9.40;96.80;;;;;;5069828;28;21012;-45
2022/04/24 05:21:14;;;;;;;0.77;0.30;;;9.40;96.80;;;;;;5066227;28;20194;-46
2022/04/24 05:23:44;;;;;;;0.90;0.37;;;9.20;96.70;;;;;;5068188;28;20686;-45
2022/04/24 05:26:10;;;;;;;0.80;0.30;;;9.20;96.80;;;;;;5067230;28;20208;-45
2022/04/24 05:28:35;;;;;;;1.50;0.30;;;9.20;96.90;;;;;;5066205;28;20420;-45
2022/04/24 05:31:01;;;;;;;0.70;0.30;;;9.10;97.00;;;;;;5066247;28;20186;-45
2022/04/24 05:33:28;;;;;;;0.70;0.30;;;9.00;97.00;;;;;;5067529;28;20178;-45
2022/04/24 05:35:54;;;;;;;0.70;0.30;;;8.90;97.10;;;;;;5065393;28;20196;-45
2022/04/24 05:38:19;;;;;;;1.57;0.30;;;8.90;97.10;;;;;;5052915;28;20419;-44
2022/04/24 05:40:45;;;;;;;2.20;0.57;;;8.80;97.20;;;;;;5071353;28;20518;-45
2022/04/24 05:43:10;;;;;;;0.80;0.30;;;8.80;97.30;;;;;;5076325;28;20186;-45
2022/04/24 05:45:36;;;;;;;0.90;0.40;;;8.80;97.50;;;;;;5068512;28;20496;-45
2022/04/24 05:48:02;;;;;;;1.20;0.40;;;8.80;97.70;;;;;;5066728;28;20186;-46
2022/04/24 05:50:28;;;;;;;1.03;0.30;;;8.80;97.70;;;;;;5049498;28;20518;-46
2022/04/24 05:52:55;;;;;;;0.70;0.30;;;8.90;97.70;;;;;;5068291;28;20698;-46
2022/04/24 05:55:21;;;;;;;1.30;0.30;;;8.90;97.60;;;;;;5068143;28;20202;-45
2022/04/24 05:57:49;;;;;;;0.83;0.40;;;8.90;97.70;;;;;;5069673;28;20530;-46
2022/04/24 06:00:16;;;;;;;0.93;0.30;;;8.80;97.80;;;;;;5066802;28;20416;-46
2022/04/24 06:02:43;;;;;;;0.80;0.30;;;8.80;97.80;;;;;;5066769;28;20420;-46
2022/04/24 06:05:13;;;;;;;1.07;0.30;;;8.80;97.90;;;;;;5069900;28;20712;-46
2022/04/24 06:07:40;;;;;;;0.93;0.30;;;8.80;97.90;;;;;;5068174;28;20521;-45
2022/04/24 06:10:06;;;;;;;1.90;0.40;;;8.80;97.90;;;;;;5049530;28;20473;-46
2022/04/24 06:12:42;;;;;;;0.77;0.30;;;8.80;98.00;;;;;;5064983;28;20414;-46
2022/04/24 06:15:13;;;;;;;0.70;0.33;;;8.80;98.00;;;;;;5067380;28;20513;-46
2022/04/24 06:17:39;;;;;;;0.60;0.20;;;8.80;97.90;;;;;;5065529;28;20768;-46
2022/04/24 06:20:05;;;;;;;0.80;0.40;;;8.80;97.80;;;;;;5069609;28;20582;-45
2022/04/24 06:22:44;;;;;;;1.23;0.40;;;8.70;97.70;;;;;;5066710;28;20178;-45
2022/04/24 06:25:14;;;;;;;0.70;0.30;;;8.80;97.70;;;;;;5049626;28;20686;-45
2022/04/24 06:27:39;;;;;;;1.00;0.50;;;8.70;97.80;;;;;;5047246;28;20412;-46
2022/04/24 06:30:05;;;;;;;0.60;0.30;;;8.60;97.90;;;;;;5068678;28;20455;-46
2022/04/24 06:32:34;;;;;;;0.70;0.40;;;8.60;98.00;;;;;;5040548;28;20185;-46
2022/04/24 06:35:03;;;;;;;1.47;0.30;;;8.60;98.10;;;;;;5065759;28;20529;-46
2022/04/24 06:37:29;;;;;;;0.90;0.40;;;8.60;98.20;;;;;;5066333;28;20451;-46
2022/04/24 06:39:55;;;;;;;0.90;0.40;;;8.60;98.40;;;;;;5067325;28;20416;-46
2022/04/24 06:42:21;;;;;;;0.60;0.30;;;8.60;98.60;;;;;;5066722;28;20183;-46
2022/04/24 06:44:47;;;;;;;0.80;0.30;;;8.60;98.70;;;;;;5063337;28;20198;-46
2022/04/24 06:47:12;;;;;;;1.13;0.30;;;8.60;98.70;;;;;;5066922;28;20423;-46
2022/04/24 06:49:38;;;;;;;0.60;0.30;;;8.60;98.80;;;;;;5066428;28;20190;-46
2022/04/24 06:52:04;;;;;;;0.80;0.30;;;8.60;98.80;;;;;;5066564;28;20213;-46
2022/04/24 06:54:30;;;;;;;0.70;0.40;;;8.60;98.70;;;;;;5067773;28;20677;-46
2022/04/24 06:57:01;;;;;;;0.87;0.40;;;8.70;98.80;;;;;;5063137;28;20441;-46
2022/04/24 06:59:28;;;;;;;1.00;0.30;;;8.70;98.80;;;;;;5048461;28;20194;-46
2022/04/24 07:01:53;;;;;;;0.70;0.30;;;8.80;98.80;;;;;;5067636;28;20827;-46
2022/04/24 07:04:19;;;;;;;0.97;0.40;;;8.80;98.80;;;;;;5067618;28;20460;-42
2022/04/24 07:06:45;;;;;;;0.87;0.50;;;8.80;98.80;;;;;;5065892;28;20224;-45
2022/04/24 07:09:10;;;;;;;0.77;0.47;;;8.80;98.80;;;;;;5066789;28;20257;-45
2022/04/24 07:11:36;;;;;;;1.00;0.50;;;8.90;98.80;;;;;;5065554;28;20413;-45
2022/04/24 07:14:02;;;;;;;1.83;0.40;;;8.90;98.90;;;;;;5063990;28;20293;-44
2022/04/24 07:16:28;;;;;;;0.70;0.40;;;8.90;98.90;;;;;;5065563;28;20197;-46
2022/04/24 07:18:54;;;;;;;1.07;0.57;;;8.90;98.90;;;;;;5063950;28;20425;-45
2022/04/24 07:21:20;;;;;;;1.00;0.47;;;8.90;98.90;;;;;;5062361;28;20188;-45
2022/04/24 07:23:45;;;;;;;0.83;0.47;;;8.90;98.80;;;;;;5066688;28;20420;-45
2022/04/24 07:26:11;;;;;;;0.83;0.40;;;8.90;99.00;;;;;;5062237;28;20194;-47
2022/04/24 07:28:36;;;;;;;0.90;0.50;;;8.90;99.00;;;;;;5066949;28;20181;-46
2022/04/24 07:31:03;;;;;;;1.10;0.83;;;8.90;98.90;;;;;;5064616;28;20220;-46
2022/04/24 07:33:29;;;;;;;0.90;0.40;;;8.80;98.90;;;;;;5064175;28;20185;-47
2022/04/24 07:35:58;;;;;;;0.70;0.30;;;8.90;99.00;;;;;;5060181;28;20449;-45
2022/04/24 07:38:24;;;;;;;0.77;0.43;;;8.90;99.00;;;;;;5058945;28;20736;-45
2022/04/24 07:40:50;;;;;;;0.90;0.37;;;9.00;98.90;;;;;;5064683;28;20474;-46
2022/04/24 07:43:15;;;;;;;0.60;0.23;;;9.00;98.90;;;;;;5057790;28;20197;-47
2022/04/24 07:45:44;;;;;;;2.23;0.63;;;9.10;98.90;;;;;;5063622;28;20653;-49
2022/04/24 07:48:15;;;;;;;0.90;0.50;;;9.10;98.90;;;;;;5061302;28;20251;-47
2022/04/24 07:50:43;;;;;;;0.70;0.30;;;9.20;98.90;;;;;;5062854;28;20699;-46
2022/04/24 07:53:09;;;;;;;0.80;0.30;;;9.30;99.00;;;;;;5058060;28;20466;-50
2022/04/24 07:55:36;;;;;;;1.00;0.40;;;9.30;98.80;;;;;;5061902;28;20556;-48
2022/04/24 07:58:03;;;;;;;1.20;0.40;;;9.30;98.60;;;;;;5060907;28;20858;-46
2022/04/24 08:00:31;;;;;;;0.87;0.30;;;9.40;98.40;;;;;;5061831;28;20424;-46
2022/04/24 08:03:03;;;;;;;1.10;0.40;;;9.40;98.60;;;;;;5031975;28;20440;-46
2022/04/24 08:05:37;;;;;;;0.80;0.40;;;9.50;98.30;;;;;;5062605;28;20823;-45
2022/04/24 08:08:09;;;;;;;1.47;0.60;;;9.50;98.40;;;;;;5061089;28;20439;-48
2022/04/24 08:10:38;;;;;;;1.67;0.67;;;9.60;98.60;;;;;;5061204;28;20425;-45
2022/04/24 08:13:05;;;;;;;0.80;0.47;;;9.70;98.60;;;;;;5066544;28;20436;-45
2022/04/24 08:15:35;;;;;;;1.00;0.57;;;9.70;98.50;;;;;;5073496;28;20529;-47
2022/04/24 08:18:02;;;;;;;0.83;0.47;;;9.80;98.40;;;;;;5074026;28;20443;-46
2022/04/24 08:20:28;;;;;;;1.10;0.50;;;9.90;98.30;;;;;;5072384;28;20443;-47
2022/04/24 08:22:55;;;;;;;1.20;0.60;;;9.90;98.30;;;;;;5076384;28;20454;-44
2022/04/24 08:25:25;;;;;;;1.73;0.53;;;9.90;98.10;;;;;;5073755;28;20475;-46
2022/04/24 08:27:53;;;;;;;1.30;0.60;;;10.00;97.50;;;;;;5075084;28;20415;-45
2022/04/24 08:30:20;;;;;;;1.10;0.60;;;9.90;98.00;;;;;;5052638;28;20435;-46
2022/04/24 08:32:47;;;;;;;1.40;0.67;;;10.00;97.40;;;;;;5060138;28;20428;-45
2022/04/24 08:35:15;;;;;;;0.90;0.60;;;10.00;97.30;;;;;;5053126;28;20552;-49
2022/04/24 08:37:41;;;;;;;1.80;1.40;;;10.00;97.40;;;;;;5055817;28;20412;-47
2022/04/24 08:40:08;;;;;;;1.13;0.70;;;10.00;97.50;;;;;;5054411;28;20947;-44
2022/04/24 08:42:34;;;;;;;1.10;0.80;;;10.00;97.40;;;;;;5074408;28;20795;-46
2022/04/24 08:45:02;;;;;;;1.53;1.20;;;10.10;97.50;;;;;;5074037;28;20523;-45
2022/04/24 08:47:29;;;;;;;1.63;1.03;;;10.10;97.40;;;;;;5074191;28;20431;-46
2022/04/24 08:49:59;;;;;;;1.63;1.00;;;10.10;97.60;;;;;;5041537;28;20420;-46
2022/04/24 08:52:27;;;;;;;1.63;0.90;;;10.10;97.60;;;;;;5075435;28;20462;-45
2022/04/24 08:54:54;;;;;;;1.20;0.70;;;10.10;97.50;;;;;;5064065;28;20569;-46
2022/04/24 08:57:21;;;;;;;2.00;0.80;;;10.20;97.40;;;;;;5074289;28;20496;-49
2022/04/24 08:59:47;;;;;;;1.20;1.10;;;10.20;97.40;;;;;;5077034;28;20499;-45
2022/04/24 09:02:13;;;;;;;2.50;1.00;;;10.30;97.50;;;;;;5076137;28;20550;-45
2022/04/24 09:04:40;;;;;;;1.60;1.10;;;10.30;97.50;;;;;;5075992;28;20170;-45
2022/04/24 09:07:07;;;;;;;1.50;1.03;;;10.30;97.40;;;;;;5076116;28;20428;-46
2022/04/24 09:09:41;;;;;;;1.10;0.80;;;10.40;97.40;;;;;;5059499;28;20845;-46
2022/04/24 09:12:15;;;;;;;1.60;0.90;;;10.50;97.20;;;;;;5075126;28;20467;-47
2022/04/24 09:14:41;;;;;;;2.20;1.10;;;10.50;97.10;;;;;;5075181;28;20774;-47
2022/04/24 09:17:21;;;;;;;1.30;0.93;;;10.50;97.10;;;;;;5073586;28;20822;-47
2022/04/24 09:19:47;;;;;;;1.40;1.00;;;10.60;97.10;;;;;;5075083;28;20399;-45
2022/04/24 09:22:15;;;;;;;1.63;0.90;;;10.60;96.90;;;;;;5072589;28;20485;-47
2022/04/24 09:24:59;;;;;;;1.30;1.00;;;10.60;97.00;;;;;;5075842;28;20541;-47
2022/04/24 09:27:30;;;;;;;3.20;0.80;;;10.70;97.20;;;;;;5076629;28;20431;-47
2022/04/24 09:30:04;;;;;;;1.20;0.80;;;10.70;97.20;;;;;;5057506;28;20427;-45
2022/04/24 09:32:31;;;;;;;1.50;0.60;;;10.80;97.30;;;;;;5072887;28;20428;-46
2022/04/24 09:34:57;;;;;;;1.10;0.70;;;10.80;97.50;;;;;;5074802;28;20576;-46
2022/04/24 09:37:24;;;;;;;1.17;0.70;;;10.90;97.20;;;;;;5054949;28;20873;-45
2022/04/24 09:39:50;;;;;;;1.43;0.90;;;11.00;97.20;;;;;;5057229;28;20846;-46
2022/04/24 09:42:18;;;;;;;1.93;1.10;;;11.00;97.10;;;;;;5020126;28;20441;-45
2022/04/24 09:44:51;;;;;;;1.40;1.10;;;11.00;96.80;;;;;;5054039;28;20831;-44
2022/04/24 09:47:23;;;;;;;1.37;1.10;;;11.00;96.40;;;;;;5053313;28;20503;-44
2022/04/24 09:49:50;;;;;;;1.30;1.03;;;11.10;96.50;;;;;;5022238;28;20451;-45
2022/04/24 09:52:22;;;;;;;1.73;0.97;;;11.10;96.50;;;;;;5058994;28;20433;-44
2022/04/24 09:54:51;;;;;;;1.30;1.10;;;11.10;96.50;;;;;;5058537;28;20748;-45
2022/04/24 09:57:17;;;;;;;5.43;4.93;;;11.20;96.60;;;;;;5063468;28;20427;-45
2022/04/24 09:59:45;;;;;;;10.10;9.10;;;11.20;96.60;;;;;;5070132;28;20429;-44
2022/04/24 10:02:14;;;;;;;8.00;7.07;;;11.30;96.60;;;;;;5049801;28;20464;-45
2022/04/24 10:04:42;;;;;;;4.93;2.57;;;11.30;96.60;;;;;;5067166;28;20517;-45
2022/04/24 10:07:20;;;;;;;1.43;1.03;;;11.30;96.40;;;;;;5064800;28;20875;-46
2022/04/24 10:09:48;;;;;;;1.50;1.17;;;11.30;96.10;;;;;;5064558;28;20761;-43
2022/04/24 10:12:18;;;;;;;2.03;1.17;;;11.20;96.20;;;;;;5063835;28;21046;-44
2022/04/24 10:15:03;;;;;;;2.73;1.17;;;11.20;96.30;;;;;;5063997;28;20800;-44
2022/04/24 10:17:29;;;;;;;2.50;2.03;;;11.20;96.50;;;;;;5048429;28;20439;-45
2022/04/24 10:20:23;;;;;;;4.63;3.70;;;11.20;96.90;;;;;;5064225;28;20518;-44
2022/04/24 10:22:53;;;;;;;2.90;2.70;;;11.20;96.70;;;;;;5066702;28;20427;-45
2022/04/24 10:25:29;;;;;;;2.20;2.00;;;11.20;96.70;;;;;;5050315;28;20884;-45
2022/04/24 10:27:55;;;;;;;2.67;1.77;;;11.20;96.80;;;;;;5065202;28;20440;-45
2022/04/24 10:30:27;;;;;;;2.03;1.67;;;11.20;96.90;;;;;;5065868;28;20432;-43
2022/04/24 10:33:13;;;;;;;2.13;1.50;;;11.20;96.90;;;;;;5063297;28;20703;-46
2022/04/24 10:35:51;;;;;;;2.40;1.43;;;11.30;97.00;;;;;;5046316;28;20459;-45
2022/04/24 10:38:19;;;;;;;3.13;1.40;;;11.30;96.70;;;;;;5064337;28;20504;-45
2022/04/24 10:41:03;;;;;;;1.53;1.23;;;11.30;96.70;;;;;;5063790;28;20475;-46
2022/04/24 10:43:59;;;;;;;1.43;1.10;;;11.30;96.80;;;;;;5064681;28;20725;-43
2022/04/24 10:46:27;;;;;;;2.30;2.10;;;11.40;97.00;;;;;;5060326;28;20424;-43
2022/04/24 10:48:54;;;;;;;2.50;1.77;;;11.40;97.00;;;;;;5027547;28;20444;-45
2022/04/24 10:51:56;;;;;;;1.87;1.40;;;11.40;96.90;;;;;;5063445;28;20493;-43
2022/04/24 10:54:35;;;;;;;1.70;1.40;;;11.40;96.70;;;;;;5060370;28;20566;-43
2022/04/24 10:57:01;;;;;;;2.20;1.50;;;11.40;96.70;;;;;;5063048;28;20420;-46
2022/04/24 10:59:28;;;;;;;2.40;1.60;;;11.40;96.70;;;;;;5062539;28;20428;-44
2022/04/24 11:01:55;;;;;;;2.47;1.57;;;11.40;96.70;;;;;;5045665;28;20434;-45
2022/04/24 11:04:23;;;;;;;1.60;0.90;;;11.40;96.60;;;;;;5063748;28;20451;-45
2022/04/24 11:06:57;;;;;;;1.67;1.10;;;11.40;96.60;;;;;;5063632;28;20424;-45
2022/04/24 11:09:28;;;;;;;1.57;1.37;;;11.40;96.80;;;;;;5062724;28;20539;-45
2022/04/24 11:11:58;;;;;;;1.87;1.60;;;11.40;96.90;;;;;;5063638;28;20497;-43
2022/04/24 11:14:28;;;;;;;1.73;1.07;;;11.50;97.00;;;;;;5063100;28;20587;-42
2022/04/24 11:16:59;;;;;;;4.53;1.40;;;11.50;96.40;;;;;;5045260;28;20513;-43
2022/04/24 11:19:25;;;;;;;1.60;1.10;;;11.40;96.40;;;;;;5061144;28;20460;-43
2022/04/24 11:21:59;;;;;;;1.10;0.90;;;11.40;96.60;;;;;;5064307;28;20758;-43
2022/04/24 11:24:39;;;;;;;1.97;1.30;;;11.40;96.70;;;;;;5044421;28;20440;-42
2022/04/24 11:27:13;;;;;;;1.37;1.10;;;11.50;96.80;;;;;;5045171;28;20429;-43
2022/04/24 11:29:40;;;;;;;1.37;1.00;;;11.50;96.80;;;;;;5063539;28;20425;-43
2022/04/24 11:32:09;;;;;;;2.37;1.27;;;11.50;96.70;;;;;;5062196;28;20845;-43
2022/04/24 11:34:37;;;;;;;1.50;1.40;;;11.60;96.70;;;;;;5062142;28;20566;-43
2022/04/24 11:37:04;;;;;;;1.73;1.00;;;11.70;96.80;;;;;;5040619;28;20435;-43
2022/04/24 11:39:32;;;;;;;2.07;1.33;;;11.80;96.90;;;;;;5061474;28;20469;-44
2022/04/24 11:41:58;;;;;;;1.70;1.10;;;11.90;96.90;;;;;;5060408;28;20497;-43
2022/04/24 11:50:14;;;;;;;4.00;1.10;;;12.10;96.50;;;;;;5061841;28;20423;-44
2022/04/24 11:52:48;;;;;;;1.73;0.90;;;12.10;96.10;;;;;;5062604;28;20515;-44
2022/04/24 11:55:22;;;;;;;2.20;1.20;;;12.10;96.20;;;;;;5063049;28;20468;-44
2022/04/24 11:57:59;;;;;;;1.60;1.20;;;12.10;96.30;;;;;;5059248;28;20539;-42
2022/04/24 12:00:36;;;;;;;2.27;1.40;;;12.20;96.40;;;;;;5062110;28;20407;-43
2022/04/24 12:03:01;;;;;;;1.77;1.30;;;12.20;96.40;;;;;;5044354;28;20621;-42
2022/04/24 12:05:29;;;;;;;1.90;1.60;;;12.30;96.40;;;;;;5061803;28;20922;-42
2022/04/24 12:07:58;;;;;;;1.90;1.40;;;12.30;96.50;;;;;;5063609;28;20358;-45
2022/04/24 12:10:26;;;;;;;2.80;1.50;;;12.40;96.60;;;;;;5060702;28;20459;-43
2022/04/24 12:12:53;;;;;;;1.67;1.30;;;12.50;96.60;;;;;;5042554;28;20443;-42
2022/04/24 12:15:22;;;;;;;1.63;0.80;;;12.40;96.30;;;;;;5061959;28;20580;-41
2022/04/24 12:17:52;;;;;;;1.20;0.90;;;12.50;96.30;;;;;;5059737;28;20444;-43
2022/04/24 12:20:19;;;;;;;2.93;1.10;;;12.40;96.00;;;;;;5061670;28;20417;-44
2022/04/24 12:22:45;;;;;;;1.90;1.17;;;12.40;96.00;;;;;;5061401;28;20404;-43
2022/04/24 12:25:12;;;;;;;1.53;1.20;;;12.40;96.20;;;;;;5062065;28;20483;-43
2022/04/24 12:27:38;;;;;;;1.83;1.47;;;12.40;96.30;;;;;;5061227;28;20408;-44
2022/04/24 12:30:06;;;;;;;2.13;1.63;;;12.40;96.30;;;;;;5039873;28;20465;-44
2022/04/24 12:32:34;;;;;;;2.63;1.60;;;12.40;96.20;;;;;;5061055;28;20422;-44
2022/04/24 12:35:00;;;;;;;3.27;1.97;;;12.50;96.40;;;;;;5063394;28;20468;-43
2022/04/24 12:37:31;;;;;;;2.67;1.63;;;12.50;96.60;;;;;;5061621;28;20416;-43
2022/04/24 12:39:57;;;;;;;1.10;0.90;;;12.60;96.80;;;;;;5062516;28;20266;-43
2022/04/24 12:42:25;;;;;;;1.80;1.00;;;12.70;96.30;;;;;;5061977;28;20503;-43
2022/04/24 12:44:51;;;;;;;1.60;1.00;;;12.70;95.90;;;;;;5061381;28;20459;-43
2022/04/24 12:47:18;;;;;;;2.50;1.60;;;12.80;95.70;;;;;;5060267;28;20455;-45
2022/04/24 12:49:44;;;;;;;2.07;1.40;;;12.90;95.60;;;;;;5045745;28;20715;-44
2022/04/24 12:52:11;;;;;;;2.50;1.70;;;12.90;95.50;;;;;;5050404;28;20732;-43